Time;durP1;ratioP1;P1;durP2;ratioP2;P2;SDS_P1;SDS_P2;PMS_P1;PMS_P2;Temp;Humidity;BMP_temperature;BMP_pressure;BME280_temperature;BME280_humidity;BME280_pressure;Samples;Min_cycle;Max_cycle;Signal;HPM_P1;HPM_P2
2022/07/23 00:01:36;;;;;;;7.78;5.25;;;13.80;99.90;;;;;;5089548;28;20051;-80
2022/07/23 00:04:05;;;;;;;9.02;5.97;;;13.80;99.90;;;;;;5072290;27;20110;-80
2022/07/23 00:06:30;;;;;;;9.48;6.25;;;13.80;99.90;;;;;;5096894;27;20055;-80
2022/07/23 00:08:56;;;;;;;10.52;5.88;;;13.80;99.90;;;;;;5102141;27;20049;-80
2022/07/23 00:11:22;;;;;;;9.43;6.60;;;13.80;99.90;;;;;;5082158;28;20485;-80
2022/07/23 00:13:47;;;;;;;10.88;5.85;;;13.70;99.90;;;;;;5080651;28;20503;-80
2022/07/23 00:16:13;;;;;;;8.50;5.78;;;13.70;99.90;;;;;;5094419;28;20047;-80
2022/07/23 00:18:39;;;;;;;10.13;5.30;;;13.70;99.90;;;;;;5079310;28;20073;-80
2022/07/23 00:21:05;;;;;;;7.55;5.72;;;13.70;99.90;;;;;;5096308;28;20050;-79
2022/07/23 00:23:31;;;;;;;9.80;6.45;;;13.70;99.90;;;;;;5083716;28;20035;-80
2022/07/23 00:25:57;;;;;;;8.05;5.82;;;13.70;99.90;;;;;;5075091;28;20039;-79
2022/07/23 00:28:22;;;;;;;8.77;6.03;;;13.60;99.90;;;;;;5094719;28;20035;-80
2022/07/23 00:30:48;;;;;;;8.15;5.80;;;13.70;99.90;;;;;;5089908;28;20047;-80
2022/07/23 00:33:14;;;;;;;9.60;5.65;;;13.70;99.90;;;;;;5092846;28;20039;-80
2022/07/23 00:35:40;;;;;;;9.55;6.15;;;13.70;99.90;;;;;;5089079;28;20082;-80
2022/07/23 00:38:09;;;;;;;8.20;5.93;;;13.70;99.90;;;;;;5078373;28;20042;-80
2022/07/23 00:40:35;;;;;;;11.55;5.85;;;13.70;99.90;;;;;;5075419;28;20039;-80
2022/07/23 00:43:01;;;;;;;7.45;5.75;;;13.70;99.90;;;;;;5071732;28;20044;-80
2022/07/23 00:45:28;;;;;;;9.38;5.68;;;13.70;99.90;;;;;;5094713;28;20048;-80
2022/07/23 00:47:54;;;;;;;8.15;6.25;;;13.70;99.90;;;;;;5080494;28;20085;-79
2022/07/23 00:50:19;;;;;;;9.55;6.03;;;13.70;99.90;;;;;;5090891;28;20070;-80
2022/07/23 00:52:46;;;;;;;7.93;6.10;;;13.70;99.90;;;;;;5093809;28;20508;-79
2022/07/23 00:55:12;;;;;;;7.57;6.03;;;13.70;99.90;;;;;;5091973;28;20078;-79
2022/07/23 00:57:40;;;;;;;9.63;6.78;;;13.60;99.90;;;;;;5083314;28;20506;-79
2022/07/23 01:00:09;;;;;;;7.53;6.15;;;13.60;99.90;;;;;;5072071;28;20075;-79
2022/07/23 01:02:34;;;;;;;9.07;6.47;;;13.60;99.90;;;;;;5092951;28;20112;-79
2022/07/23 01:05:00;;;;;;;9.25;6.45;;;13.60;99.90;;;;;;5089238;28;20035;-79
2022/07/23 01:07:26;;;;;;;11.75;6.90;;;13.60;99.90;;;;;;5084839;28;20126;-80
2022/07/23 01:09:52;;;;;;;11.40;6.82;;;13.60;99.90;;;;;;5086860;28;20467;-79
2022/07/23 01:12:21;;;;;;;10.45;7.05;;;13.50;99.90;;;;;;5096981;28;20071;-79
2022/07/23 01:15:00;;;;;;;8.80;7.00;;;13.50;99.90;;;;;;5092897;28;20066;-79
2022/07/23 01:17:26;;;;;;;10.63;6.63;;;13.50;99.90;;;;;;5102765;28;20538;-80
2022/07/23 01:19:52;;;;;;;9.18;6.40;;;13.40;99.90;;;;;;5087694;28;20082;-80
2022/07/23 01:22:19;;;;;;;10.77;6.72;;;13.30;99.90;;;;;;5101394;28;20075;-80
2022/07/23 01:24:45;;;;;;;9.15;6.20;;;13.20;99.90;;;;;;5092950;28;20046;-80
2022/07/23 01:27:12;;;;;;;9.25;6.65;;;13.20;99.90;;;;;;5079853;28;20498;-80
2022/07/23 01:29:39;;;;;;;9.48;6.43;;;13.10;99.90;;;;;;5085789;28;20517;-79
2022/07/23 01:32:05;;;;;;;9.07;6.82;;;13.10;99.90;;;;;;5086447;28;20503;-80
2022/07/23 01:34:31;;;;;;;10.43;7.00;;;13.00;99.90;;;;;;5087272;28;20083;-80
2022/07/23 01:36:56;;;;;;;12.90;8.15;;;12.90;1.00;;;;;;5074839;28;20079;-79
2022/07/23 01:39:22;;;;;;;9.27;6.88;;;12.90;1.00;;;;;;5072429;28;20052;-80
2022/07/23 01:41:48;;;;;;;10.75;6.80;;;12.90;1.00;;;;;;5103897;28;20063;-80
2022/07/23 01:44:13;;;;;;;10.65;7.00;;;12.90;1.00;;;;;;5078407;28;20051;-80
2022/07/23 01:46:39;;;;;;;8.13;6.75;;;12.80;1.00;;;;;;5094632;28;20044;-80
2022/07/23 01:49:05;;;;;;;8.00;6.45;;;12.70;1.00;;;;;;5095597;28;20047;-79
2022/07/23 01:51:31;;;;;;;7.32;6.40;;;12.60;1.00;;;;;;5089536;28;20040;-79
2022/07/23 01:53:56;;;;;;;12.63;6.68;;;12.60;1.00;;;;;;5079465;28;20141;-79
2022/07/23 01:56:22;;;;;;;8.45;6.60;;;12.50;1.00;;;;;;5083818;28;20040;-79
2022/07/23 01:58:49;;;;;;;8.32;6.63;;;12.50;1.00;;;;;;5077547;28;20039;-79
2022/07/23 02:01:15;;;;;;;8.75;6.25;;;12.40;1.00;;;;;;5078143;28;20040;-80
2022/07/23 02:03:40;;;;;;;9.65;6.78;;;12.40;1.00;;;;;;5085696;28;20067;-79
2022/07/23 02:06:06;;;;;;;7.43;6.20;;;12.40;1.00;;;;;;5086941;28;20126;-79
2022/07/23 02:08:32;;;;;;;10.02;6.07;;;12.30;1.00;;;;;;5094938;28;20063;-79
2022/07/23 02:10:57;;;;;;;9.10;7.20;;;12.30;1.00;;;;;;5076229;28;20051;-79
2022/07/23 02:13:26;;;;;;;12.00;7.07;;;12.30;1.00;;;;;;5077325;28;20039;-79
2022/07/23 02:15:51;;;;;;;11.38;7.15;;;12.30;1.00;;;;;;5072409;28;20058;-79
2022/07/23 02:18:17;;;;;;;10.60;7.05;;;12.30;1.00;;;;;;5089507;28;20550;-79
2022/07/23 02:20:44;;;;;;;10.13;6.45;;;12.30;13.70;;;;;;5095346;28;20036;-80
2022/07/23 02:23:10;;;;;;;11.57;6.68;;;12.30;38.10;;;;;;5075705;28;20409;-80
2022/07/23 02:25:35;;;;;;;11.38;7.10;;;12.30;21.20;;;;;;5091468;28;20085;-79
2022/07/23 02:28:01;;;;;;;10.90;6.97;;;12.20;7.80;;;;;;5089580;28;20052;-79
2022/07/23 02:30:30;;;;;;;9.93;6.75;;;12.10;1.00;;;;;;5088005;28;20131;-79
2022/07/23 02:32:56;;;;;;;8.88;6.88;;;12.10;1.00;;;;;;5093519;28;20035;-80
2022/07/23 02:35:21;;;;;;;13.88;7.28;;;12.20;29.00;;;;;;5082454;28;20507;-79
2022/07/23 02:37:47;;;;;;;10.30;6.47;;;12.10;11.50;;;;;;5086373;28;20119;-79
2022/07/23 02:40:13;;;;;;;8.38;6.72;;;12.10;8.60;;;;;;5094261;28;20115;-79
2022/07/23 02:42:38;;;;;;;9.98;6.20;;;12.10;1.00;;;;;;5093856;28;20028;-79
2022/07/23 02:45:05;;;;;;;14.25;7.10;;;12.00;6.20;;;;;;5089748;28;20465;-79
2022/07/23 02:47:31;;;;;;;9.50;7.25;;;12.10;99.90;;;;;;5095543;28;20658;-79
2022/07/23 02:49:57;;;;;;;14.07;7.22;;;12.20;99.90;;;;;;5071982;28;20039;-79
2022/07/23 02:52:23;;;;;;;10.88;7.40;;;12.10;99.90;;;;;;5077184;28;20336;-79
2022/07/23 02:54:48;;;;;;;12.15;8.05;;;12.10;99.90;;;;;;5077488;28;20052;-79
2022/07/23 02:57:14;;;;;;;11.50;7.30;;;12.20;99.90;;;;;;5095083;28;20044;-79
2022/07/23 02:59:39;;;;;;;12.32;7.70;;;12.20;99.90;;;;;;5078961;28;20040;-79
2022/07/23 03:02:05;;;;;;;12.88;8.25;;;12.20;99.90;;;;;;5103002;28;20041;-79
2022/07/23 03:04:31;;;;;;;11.40;7.95;;;12.20;99.90;;;;;;5071579;28;20063;-79
2022/07/23 03:06:56;;;;;;;11.93;7.97;;;12.20;99.90;;;;;;5074556;28;20566;-79
2022/07/23 03:09:22;;;;;;;11.45;7.47;;;12.20;99.90;;;;;;5075177;28;20083;-79
2022/07/23 03:11:48;;;;;;;10.23;6.80;;;12.10;99.90;;;;;;5087591;28;20036;-79
2022/07/23 03:14:13;;;;;;;9.88;6.85;;;12.10;99.90;;;;;;5093727;28;20044;-79
2022/07/23 03:16:39;;;;;;;7.85;5.90;;;12.00;99.90;;;;;;5093356;28;20071;-79
2022/07/23 03:19:05;;;;;;;10.48;6.40;;;11.90;99.90;;;;;;5092863;28;20047;-79
2022/07/23 03:21:31;;;;;;;10.18;7.10;;;11.90;99.90;;;;;;5080744;28;20375;-80
2022/07/23 03:23:56;;;;;;;9.52;6.60;;;11.80;99.90;;;;;;5077593;28;20483;-80
2022/07/23 03:26:25;;;;;;;10.13;6.28;;;11.80;99.90;;;;;;5080662;28;20039;-79
2022/07/23 03:28:52;;;;;;;10.52;6.95;;;11.80;99.90;;;;;;5092127;28;20425;-79
2022/07/23 03:31:17;;;;;;;10.75;7.10;;;11.70;99.90;;;;;;5076797;28;20044;-79
2022/07/23 03:33:43;;;;;;;12.50;7.38;;;11.80;99.90;;;;;;5096914;28;20485;-79
2022/07/23 03:36:09;;;;;;;10.45;6.72;;;11.80;99.90;;;;;;5065578;28;20154;-79
2022/07/23 03:38:35;;;;;;;10.25;7.30;;;11.70;99.90;;;;;;5089371;28;20298;-79
2022/07/23 03:41:00;;;;;;;13.15;7.55;;;11.80;99.90;;;;;;5068904;28;20039;-79
2022/07/23 03:43:26;;;;;;;14.27;7.97;;;11.80;99.90;;;;;;5090464;28;20060;-80
2022/07/23 03:45:52;;;;;;;11.82;7.55;;;11.80;99.90;;;;;;5084341;28;20529;-79
2022/07/23 03:48:17;;;;;;;11.68;7.35;;;11.80;99.90;;;;;;5087448;28;20037;-80
2022/07/23 03:50:46;;;;;;;12.50;7.03;;;11.80;99.90;;;;;;5068683;28;20079;-79
2022/07/23 03:53:12;;;;;;;13.85;7.75;;;11.80;99.90;;;;;;5074997;28;20192;-79
2022/07/23 03:55:37;;;;;;;12.77;7.43;;;11.80;99.90;;;;;;5092231;28;20218;-79
2022/07/23 03:58:03;;;;;;;11.15;7.57;;;11.80;99.90;;;;;;5075156;28;20042;-79
2022/07/23 04:00:29;;;;;;;11.48;7.63;;;11.80;99.90;;;;;;5098335;28;20036;-79
2022/07/23 04:02:54;;;;;;;10.38;7.13;;;11.90;99.90;;;;;;5087866;28;20424;-79
2022/07/23 04:05:20;;;;;;;11.73;7.32;;;11.90;99.90;;;;;;5087333;28;20040;-79
2022/07/23 04:07:46;;;;;;;13.20;7.00;;;11.90;99.90;;;;;;5075148;28;20107;-80
2022/07/23 04:10:11;;;;;;;11.70;7.03;;;12.00;99.90;;;;;;5078192;28;20123;-79
2022/07/23 04:12:37;;;;;;;11.15;7.97;;;12.00;99.90;;;;;;5082302;28;20406;-80
2022/07/23 04:15:03;;;;;;;9.60;6.50;;;12.00;99.90;;;;;;5095083;28;20073;-80
2022/07/23 04:17:29;;;;;;;10.20;6.40;;;11.90;99.90;;;;;;5075715;28;20043;-79
2022/07/23 04:19:55;;;;;;;9.68;7.18;;;11.90;99.90;;;;;;5073121;28;20220;-79
2022/07/23 04:22:20;;;;;;;10.68;7.07;;;12.00;99.90;;;;;;5068513;28;20176;-79
2022/07/23 04:24:46;;;;;;;10.70;6.57;;;12.00;99.90;;;;;;5090583;28;20505;-79
2022/07/23 04:27:12;;;;;;;11.90;6.47;;;12.10;99.90;;;;;;5075229;28;20421;-79
2022/07/23 04:29:37;;;;;;;8.68;6.80;;;12.10;99.90;;;;;;5074788;28;20044;-79
2022/07/23 04:32:04;;;;;;;11.00;6.68;;;12.10;99.90;;;;;;5082677;28;20046;-80
2022/07/23 04:34:30;;;;;;;10.85;7.00;;;12.20;99.90;;;;;;5080567;28;20407;-79
2022/07/23 04:36:56;;;;;;;13.48;7.03;;;12.30;99.90;;;;;;5093846;28;20040;-79
2022/07/23 04:39:21;;;;;;;9.30;6.15;;;12.30;99.90;;;;;;5088996;28;20040;-79
2022/07/23 04:41:47;;;;;;;9.38;6.30;;;12.30;99.90;;;;;;5089546;28;20043;-79
2022/07/23 04:44:13;;;;;;;9.88;7.10;;;12.30;99.90;;;;;;5086658;28;20062;-79
2022/07/23 04:46:39;;;;;;;11.48;6.05;;;12.40;99.90;;;;;;5077381;28;20131;-80
2022/07/23 04:49:04;;;;;;;8.52;6.00;;;12.40;99.90;;;;;;5056055;28;20050;-80
2022/07/23 04:51:30;;;;;;;8.07;6.22;;;12.40;99.90;;;;;;5079979;28;20425;-80
2022/07/23 04:53:56;;;;;;;9.52;6.75;;;12.40;99.90;;;;;;5089139;28;20051;-79
2022/07/23 04:56:22;;;;;;;9.70;5.95;;;12.40;99.90;;;;;;5088332;28;20067;-80
2022/07/23 04:58:48;;;;;;;11.93;6.75;;;12.40;99.90;;;;;;5073956;28;20044;-79
2022/07/23 05:01:13;;;;;;;14.88;7.03;;;12.50;99.90;;;;;;5094252;28;20039;-79
2022/07/23 05:03:39;;;;;;;10.70;6.43;;;12.50;99.90;;;;;;5093313;28;20035;-80
2022/07/23 05:06:05;;;;;;;9.25;6.28;;;12.60;99.90;;;;;;5069678;28;20489;-79
2022/07/23 05:08:31;;;;;;;8.93;6.65;;;12.60;99.90;;;;;;5086308;28;20464;-79
2022/07/23 05:10:56;;;;;;;9.13;6.95;;;12.60;99.90;;;;;;5090450;28;20046;-79
2022/07/23 05:13:22;;;;;;;9.98;6.93;;;12.60;99.90;;;;;;5078093;28;20043;-79
2022/07/23 05:15:48;;;;;;;9.35;6.85;;;12.70;99.90;;;;;;5081416;28;20043;-79
2022/07/23 05:18:14;;;;;;;10.35;6.95;;;12.80;80.80;;;;;;5103966;28;20040;-79
2022/07/23 05:20:40;;;;;;;12.20;6.82;;;13.00;75.60;;;;;;5070474;28;20093;-80
2022/07/23 05:23:06;;;;;;;11.30;6.60;;;13.20;13.80;;;;;;5092807;28;20036;-79
2022/07/23 05:25:32;;;;;;;10.52;6.43;;;13.20;4.00;;;;;;5075430;28;20036;-80
2022/07/23 05:27:58;;;;;;;11.77;6.97;;;13.30;1.00;;;;;;5090047;28;20128;-79
2022/07/23 05:30:23;;;;;;;9.27;6.68;;;13.30;1.00;;;;;;5085506;28;20051;-80
2022/07/23 05:32:49;;;;;;;8.35;6.43;;;13.40;1.00;;;;;;5088208;28;20402;-79
2022/07/23 05:35:15;;;;;;;9.07;6.60;;;13.40;1.00;;;;;;5090386;28;20392;-79
2022/07/23 05:37:41;;;;;;;12.30;6.82;;;13.60;1.00;;;;;;5093132;28;20118;-79
2022/07/23 05:40:09;;;;;;;11.02;6.90;;;13.60;1.00;;;;;;5069722;28;20052;-79
2022/07/23 05:42:36;;;;;;;7.90;6.32;;;13.50;1.00;;;;;;5065860;28;20079;-79
2022/07/23 05:45:02;;;;;;;11.90;6.70;;;13.50;1.00;;;;;;5090286;28;20391;-79
2022/07/23 05:47:27;;;;;;;9.70;6.72;;;13.60;1.00;;;;;;5076907;28;20124;-79
2022/07/23 05:49:53;;;;;;;8.43;6.70;;;13.60;1.00;;;;;;5072624;28;20044;-79
2022/07/23 05:52:19;;;;;;;7.97;6.85;;;13.60;1.00;;;;;;5092077;28;20036;-79
2022/07/23 05:54:45;;;;;;;10.10;6.97;;;13.60;1.00;;;;;;5085112;28;20039;-79
2022/07/23 05:57:10;;;;;;;10.43;6.55;;;13.80;1.00;;;;;;5097931;28;20050;-79
2022/07/23 05:59:36;;;;;;;8.23;6.60;;;13.80;99.90;;;;;;5075113;28;20036;-80
2022/07/23 06:02:02;;;;;;;10.60;6.72;;;14.00;99.90;;;;;;5072716;28;20036;-79
2022/07/23 06:04:27;;;;;;;9.10;6.20;;;14.10;99.90;;;;;;5090329;28;20414;-80
2022/07/23 06:06:53;;;;;;;6.95;6.10;;;14.20;99.90;;;;;;5101816;28;20654;-79
2022/07/23 06:09:19;;;;;;;8.55;5.93;;;14.30;99.90;;;;;;5078948;28;20040;-79
2022/07/23 06:11:44;;;;;;;10.93;5.72;;;14.50;99.90;;;;;;5090080;28;20144;-79
2022/07/23 06:14:10;;;;;;;8.50;6.00;;;14.60;99.90;;;;;;5086469;28;20040;-79
2022/07/23 06:16:36;;;;;;;9.38;5.90;;;14.80;99.90;;;;;;5081308;28;20139;-80
2022/07/23 06:19:01;;;;;;;8.02;5.93;;;14.90;99.90;;;;;;5075379;28;20043;-79
2022/07/23 06:21:27;;;;;;;7.88;5.72;;;15.10;99.90;;;;;;5084837;28;20039;-78
2022/07/23 06:23:58;;;;;;;11.57;5.78;;;15.20;99.90;;;;;;5071426;28;20511;-79
2022/07/23 06:26:24;;;;;;;8.13;5.00;;;15.40;99.90;;;;;;5081178;28;20044;-79
2022/07/23 06:28:50;;;;;;;5.85;5.10;;;15.50;99.90;;;;;;5069181;28;20047;-79
2022/07/23 06:31:16;;;;;;;6.65;4.38;;;15.50;99.90;;;;;;5091267;28;20055;-79
2022/07/23 06:33:42;;;;;;;7.00;4.75;;;15.60;99.90;;;;;;5074424;28;20467;-80
2022/07/23 06:36:07;;;;;;;4.65;4.00;;;15.80;99.90;;;;;;5068235;28;20059;-80
2022/07/23 06:38:33;;;;;;;6.85;3.83;;;15.80;29.50;;;;;;5067591;28;20145;-80
2022/07/23 06:40:59;;;;;;;6.00;3.90;;;15.90;58.60;;;;;;5081087;28;20040;-79
2022/07/23 06:43:25;;;;;;;6.85;4.00;;;16.00;48.90;;;;;;5090817;28;20048;-79
2022/07/23 06:45:50;;;;;;;6.15;3.97;;;16.20;99.90;;;;;;5088657;28;20124;-79
2022/07/23 06:48:16;;;;;;;5.88;3.60;;;16.30;1.00;;;;;;5092081;28;20047;-80
2022/07/23 06:50:42;;;;;;;5.28;3.40;;;16.30;1.00;;;;;;5062082;28;20036;-79
2022/07/23 06:53:08;;;;;;;4.03;3.20;;;16.10;1.00;;;;;;5083853;28;20127;-80
2022/07/23 06:55:38;;;;;;;5.28;3.33;;;16.30;1.00;;;;;;5085602;28;20344;-79
2022/07/23 06:58:04;;;;;;;3.35;2.10;;;16.50;1.00;;;;;;5072708;28;20082;-79
2022/07/23 07:00:31;;;;;;;3.40;2.00;;;16.60;99.90;;;;;;5073096;28;20039;-79
2022/07/23 07:02:57;;;;;;;3.67;1.65;;;16.70;99.90;;;;;;5084318;28;20032;-79
2022/07/23 07:05:23;;;;;;;2.92;1.90;;;16.60;99.90;;;;;;5083524;28;20521;-79
2022/07/23 07:07:49;;;;;;;2.83;1.20;;;16.70;1.00;;;;;;5076074;28;20128;-79
2022/07/23 07:10:16;;;;;;;3.38;1.20;;;16.70;99.90;;;;;;5076500;28;20135;-79
2022/07/23 07:12:42;;;;;;;1.20;1.10;;;16.80;99.90;;;;;;5069939;28;20036;-79
2022/07/23 07:15:08;;;;;;;3.00;1.30;;;17.00;99.90;;;;;;5088397;28;20514;-80
2022/07/23 07:17:33;;;;;;;2.97;1.42;;;17.10;99.90;;;;;;5092124;28;20131;-79
2022/07/23 07:19:59;;;;;;;2.13;1.05;;;17.40;99.90;;;;;;5092377;28;20111;-79
2022/07/23 07:22:25;;;;;;;5.75;1.52;;;17.50;99.90;;;;;;5087697;28;20328;-80
2022/07/23 07:24:51;;;;;;;2.47;0.93;;;17.80;99.90;;;;;;5068259;28;20066;-79
2022/07/23 07:27:17;;;;;;;5.05;1.23;;;17.80;50.40;;;;;;5068239;28;20383;-80
2022/07/23 07:29:43;;;;;;;0.75;0.60;;;17.90;80.70;;;;;;5066177;28;20043;-80
2022/07/23 07:32:09;;;;;;;1.33;0.60;;;17.90;1.00;;;;;;5086872;28;20040;-80
2022/07/23 07:34:34;;;;;;;1.35;0.68;;;17.90;1.00;;;;;;5083251;28;20142;-80
2022/07/23 07:37:00;;;;;;;1.15;0.68;;;17.80;1.00;;;;;;5086709;28;20067;-79
2022/07/23 07:39:26;;;;;;;0.82;0.70;;;17.60;1.00;;;;;;5061761;28;20036;-80
2022/07/23 07:41:52;;;;;;;2.10;0.80;;;17.60;85.50;;;;;;5059420;28;20452;-79
2022/07/23 07:44:17;;;;;;;2.78;0.90;;;17.70;21.50;;;;;;5073994;28;20108;-80
2022/07/23 07:46:44;;;;;;;1.15;0.60;;;17.50;62.40;;;;;;5095674;28;20047;-80
2022/07/23 07:49:10;;;;;;;4.68;0.80;;;17.40;1.00;;;;;;5085282;28;20461;-80
2022/07/23 07:51:35;;;;;;;3.67;0.80;;;17.30;68.10;;;;;;5093158;28;20150;-79
2022/07/23 07:54:01;;;;;;;1.95;0.90;;;17.20;83.40;;;;;;5091609;28;20103;-79
2022/07/23 07:56:27;;;;;;;1.30;0.70;;;17.30;99.90;;;;;;5087093;28;20114;-79
2022/07/23 07:58:53;;;;;;;1.55;0.85;;;17.60;90.50;;;;;;5083303;28;20473;-79
2022/07/23 08:01:22;;;;;;;1.95;0.90;;;17.90;26.90;;;;;;5067518;28;20129;-79
2022/07/23 08:03:48;;;;;;;1.27;0.70;;;17.90;1.00;;;;;;5081378;28;20133;-80
2022/07/23 08:06:13;;;;;;;1.70;0.63;;;18.10;1.00;;;;;;5096059;28;20412;-79
2022/07/23 08:08:39;;;;;;;1.38;0.88;;;18.30;1.00;;;;;;5078553;28;20152;-79
2022/07/23 08:11:05;;;;;;;2.15;0.70;;;18.40;99.90;;;;;;5085398;28;20483;-80
2022/07/23 08:13:30;;;;;;;0.95;0.60;;;18.40;99.90;;;;;;5081915;28;20040;-79
2022/07/23 08:15:56;;;;;;;0.90;0.88;;;18.40;99.90;;;;;;5081280;28;20043;-79
2022/07/23 08:18:22;;;;;;;0.75;0.60;;;18.20;99.90;;;;;;5070953;28;20035;-80
2022/07/23 08:20:47;;;;;;;1.83;0.63;;;18.10;99.90;;;;;;5066040;28;20055;-79
2022/07/23 08:23:13;;;;;;;1.25;0.55;;;18.40;99.90;;;;;;5066605;28;20028;-79
2022/07/23 08:25:42;;;;;;;2.17;0.52;;;18.50;99.90;;;;;;5087760;28;20526;-80
2022/07/23 08:28:10;;;;;;;1.15;0.57;;;18.40;99.90;;;;;;5073303;28;20667;-79
2022/07/23 08:30:37;;;;;;;1.90;0.50;;;18.60;99.90;;;;;;5073739;28;20044;-80
2022/07/23 08:33:11;;;;;;;1.55;0.60;;;18.60;99.90;;;;;;5086862;28;20032;-80
2022/07/23 08:35:39;;;;;;;1.75;0.73;;;19.40;99.90;;;;;;5082094;28;20044;-80
2022/07/23 08:38:07;;;;;;;1.88;0.80;;;19.20;99.90;;;;;;5093979;28;20036;-79
2022/07/23 08:40:36;;;;;;;1.23;0.70;;;19.20;99.90;;;;;;5069288;28;20042;-80
2022/07/23 08:43:06;;;;;;;1.42;0.70;;;19.00;99.90;;;;;;5070685;28;20476;-80
2022/07/23 08:45:37;;;;;;;0.85;0.60;;;18.80;99.90;;;;;;5084132;28;20039;-80
2022/07/23 08:48:10;;;;;;;0.90;0.57;;;19.10;99.90;;;;;;5085752;28;20469;-80
2022/07/23 08:50:37;;;;;;;1.38;0.88;;;19.60;99.90;;;;;;5083354;28;20058;-79
2022/07/23 08:53:06;;;;;;;2.55;0.90;;;19.60;99.90;;;;;;5069356;28;20040;-80
2022/07/23 08:55:31;;;;;;;1.40;0.80;;;20.10;99.90;;;;;;5080939;28;20526;-80
2022/07/23 08:57:57;;;;;;;1.38;0.68;;;19.90;99.90;;;;;;5085941;28;20039;-80
2022/07/23 09:00:23;;;;;;;2.47;0.70;;;19.30;99.90;;;;;;5090265;28;20035;-80
2022/07/23 09:02:50;;;;;;;1.45;0.70;;;19.40;99.90;;;;;;5067644;28;20051;-80
2022/07/23 09:05:16;;;;;;;2.28;0.73;;;19.90;99.90;;;;;;5058753;28;20171;-79
2022/07/23 09:08:09;;;;;;;2.85;1.08;;;19.90;99.90;;;;;;5067062;28;20070;-80
2022/07/23 09:10:46;;;;;;;3.88;1.02;;;19.90;99.90;;;;;;5070485;28;20260;-80
2022/07/23 09:13:33;;;;;;;1.50;0.80;;;19.70;99.90;;;;;;5074991;28;20486;-80
2022/07/23 09:16:07;;;;;;;3.95;1.10;;;20.00;99.90;;;;;;5096089;28;20052;-80
2022/07/23 09:19:01;;;;;;;5.00;0.90;;;20.10;99.90;;;;;;5082845;28;20448;-80
2022/07/23 09:21:35;;;;;;;2.15;1.08;;;20.20;99.90;;;;;;5072440;28;20156;-80
2022/07/23 09:24:07;;;;;;;0.77;0.73;;;20.10;99.90;;;;;;5094065;28;20036;-80
2022/07/23 09:26:36;;;;;;;2.08;1.10;;;20.00;99.90;;;;;;5073277;28;20043;-81
2022/07/23 09:29:22;;;;;;;1.35;1.08;;;20.20;99.90;;;;;;5086203;28;20052;-80
2022/07/23 09:31:53;;;;;;;2.83;1.17;;;20.00;99.90;;;;;;5085927;28;20184;-80
2022/07/23 09:34:23;;;;;;;2.05;0.93;;;20.10;99.90;;;;;;5082288;27;20130;-80
2022/07/23 09:36:51;;;;;;;1.58;0.90;;;20.00;99.90;;;;;;5081185;27;20039;-79
2022/07/23 09:39:28;;;;;;;3.28;1.00;;;20.00;99.90;;;;;;5081582;27;20047;-79
2022/07/23 09:41:54;;;;;;;1.92;1.00;;;19.60;99.90;;;;;;5053947;27;20100;-80
2022/07/23 09:44:21;;;;;;;1.35;0.85;;;19.60;99.90;;;;;;5085869;27;20126;-80
2022/07/23 09:46:49;;;;;;;1.67;1.20;;;20.10;99.90;;;;;;5097522;28;20062;-80
2022/07/23 09:49:17;;;;;;;1.00;0.82;;;20.20;99.90;;;;;;5076872;27;20063;-80
2022/07/23 09:51:52;;;;;;;1.50;1.02;;;19.80;99.90;;;;;;5086929;27;20528;-80
2022/07/23 09:54:24;;;;;;;;;;;20.40;99.90;;;;;;5062405;28;20046;-79
2022/07/23 09:56:50;;;;;;;2.40;1.02;;;20.40;99.90;;;;;;5079231;27;20330;-80
2022/07/23 09:59:19;;;;;;;3.10;1.20;;;20.60;99.90;;;;;;5097401;27;20039;-79
2022/07/23 10:01:46;;;;;;;1.95;1.15;;;20.70;99.90;;;;;;5077622;27;20043;-80
2022/07/23 10:04:12;;;;;;;4.25;1.17;;;20.70;99.90;;;;;;5088139;28;20555;-79
2022/07/23 10:06:43;;;;;;;1.98;1.10;;;20.70;99.90;;;;;;5072840;27;20114;-80
2022/07/23 10:09:15;;;;;;;1.35;1.10;;;20.80;99.90;;;;;;5078369;28;20071;-80
2022/07/23 10:11:41;;;;;;;1.15;1.05;;;20.50;99.90;;;;;;5098299;27;20047;-80
2022/07/23 10:14:07;;;;;;;1.88;1.00;;;20.70;99.90;;;;;;5081843;27;20069;-80
2022/07/23 10:16:33;;;;;;;1.98;1.00;;;20.90;99.90;;;;;;5082429;27;20487;-80
2022/07/23 10:18:59;;;;;;;2.90;1.05;;;20.70;99.90;;;;;;5077601;27;20036;-80
2022/07/23 10:21:36;;;;;;;4.00;1.00;;;20.50;99.90;;;;;;5075832;28;20035;-80
2022/07/23 10:24:40;;;;;;;1.50;1.10;;;20.60;99.90;;;;;;5091899;27;20175;-80
2022/07/23 10:27:24;;;;;;;1.25;1.00;;;20.20;99.90;;;;;;5090168;27;21002;-80
2022/07/23 10:30:04;;;;;;;2.67;0.90;;;20.10;99.90;;;;;;5091708;27;20529;-80
2022/07/23 10:33:08;;;;;;;2.35;1.10;;;20.40;99.90;;;;;;5075673;27;20054;-80
2022/07/23 10:35:42;;;;;;;2.38;1.17;;;20.30;99.90;;;;;;5088487;27;20051;-80
2022/07/23 10:38:18;;;;;;;1.35;0.90;;;20.40;99.90;;;;;;5093868;28;20101;-80
2022/07/23 10:41:03;;;;;;;2.30;1.55;;;20.20;99.90;;;;;;5095530;27;20380;-80
2022/07/23 10:43:30;;;;;;;2.97;1.13;;;20.10;99.90;;;;;;5094307;28;20414;-80
2022/07/23 10:46:29;;;;;;;3.08;1.02;;;20.30;99.90;;;;;;5093481;28;20120;-80
2022/07/23 10:49:26;;;;;;;2.58;1.08;;;19.80;99.90;;;;;;5053312;28;20042;-80
2022/07/23 10:52:13;;;;;;;3.70;0.90;;;19.90;99.90;;;;;;5080754;28;20345;-80
2022/07/23 10:54:47;;;;;;;2.47;0.90;;;20.10;99.90;;;;;;5065232;28;20051;-80
2022/07/23 10:57:13;;;;;;;1.88;1.13;;;19.90;99.90;;;;;;5071975;28;20048;-80
2022/07/23 11:00:17;;;;;;;3.15;1.10;;;20.00;99.90;;;;;;5061139;28;20035;-80
2022/07/23 11:02:45;;;;;;;3.75;1.10;;;19.90;99.90;;;;;;5020389;28;20086;-80
2022/07/23 11:05:17;;;;;;;4.47;1.52;;;20.00;99.90;;;;;;5081994;28;20044;-80
2022/07/23 11:08:04;;;;;;;6.43;1.00;;;20.30;99.90;;;;;;5090880;28;20043;-80
2022/07/23 11:10:37;;;;;;;2.97;1.17;;;20.00;99.90;;;;;;5088474;28;20043;-80
2022/07/23 11:13:21;;;;;;;2.47;1.20;;;20.10;99.90;;;;;;5093237;28;20483;-80
2022/07/23 11:16:02;;;;;;;1.50;1.00;;;20.30;99.90;;;;;;5099848;28;20058;-80
2022/07/23 11:18:40;;;;;;;1.88;1.20;;;20.10;99.90;;;;;;5092062;28;20383;-80
2022/07/23 11:21:28;;;;;;;3.45;1.10;;;20.20;99.90;;;;;;5094331;28;20100;-80
2022/07/23 11:23:59;;;;;;;2.97;1.20;;;20.60;99.90;;;;;;5076244;28;20040;-80
2022/07/23 11:26:43;;;;;;;2.25;1.20;;;20.70;99.90;;;;;;5065915;28;20044;-80
2022/07/23 11:29:36;;;;;;;3.55;1.30;;;20.50;99.90;;;;;;5090812;28;20096;-80
2022/07/23 11:32:27;;;;;;;2.42;1.20;;;20.50;99.90;;;;;;5095725;28;20032;-80
2022/07/23 11:34:53;;;;;;;3.58;2.17;;;20.30;99.90;;;;;;5081898;28;20036;-80
2022/07/23 11:37:43;;;;;;;2.30;1.30;;;20.30;99.90;;;;;;5092635;28;20062;-80
2022/07/23 11:40:12;;;;;;;3.55;1.52;;;20.80;99.90;;;;;;5054361;28;20388;-80
2022/07/23 11:42:39;;;;;;;3.17;1.50;;;21.00;99.90;;;;;;5077152;28;20059;-81
2022/07/23 11:45:08;;;;;;;3.10;1.48;;;21.70;99.90;;;;;;5098288;28;20062;-80
2022/07/23 11:47:34;;;;;;;4.43;1.58;;;22.10;99.90;;;;;;5080104;28;20460;-80
2022/07/23 11:50:02;;;;;;;3.08;1.38;;;21.50;99.90;;;;;;5073281;28;20040;-80
2022/07/23 11:52:28;;;;;;;2.95;1.50;;;21.40;99.90;;;;;;5084031;28;20063;-81
2022/07/23 11:55:00;;;;;;;2.92;1.58;;;21.00;99.90;;;;;;5086920;28;20436;-80
2022/07/23 11:57:30;;;;;;;5.93;1.73;;;21.00;99.90;;;;;;5074547;28;20434;-80
2022/07/23 12:00:00;;;;;;;3.90;1.60;;;21.40;99.90;;;;;;5083362;28;20040;-80
2022/07/23 12:02:26;;;;;;;2.38;1.50;;;21.40;99.90;;;;;;5077973;28;20054;-80
2022/07/23 12:04:53;;;;;;;2.55;1.50;;;21.30;99.90;;;;;;5084396;28;20032;-80
2022/07/23 12:07:32;;;;;;;3.65;1.65;;;21.60;99.90;;;;;;5087959;28;20134;-80
2022/07/23 12:09:59;;;;;;;3.35;1.80;;;21.50;99.90;;;;;;5071988;28;20043;-80
2022/07/23 12:12:25;;;;;;;2.53;1.38;;;20.90;99.90;;;;;;5090397;28;20119;-80
2022/07/23 12:14:54;;;;;;;3.00;1.40;;;20.90;99.90;;;;;;5085746;28;20114;-80
2022/07/23 12:17:26;;;;;;;2.47;1.40;;;21.10;99.90;;;;;;5087697;28;20087;-80
2022/07/23 12:19:52;;;;;;;3.70;1.58;;;21.10;99.90;;;;;;5065882;28;20470;-81
2022/07/23 12:22:18;;;;;;;4.35;1.60;;;21.30;99.90;;;;;;5089261;28;20360;-80
2022/07/23 12:24:57;;;;;;;2.25;1.60;;;21.50;99.90;;;;;;5091988;28;20118;-80
2022/07/23 12:27:24;;;;;;;2.20;1.48;;;21.10;99.90;;;;;;5072202;28;20048;-80
2022/07/23 12:29:50;;;;;;;3.22;1.58;;;21.60;99.90;;;;;;5088424;28;20070;-80
2022/07/23 12:32:24;;;;;;;2.50;1.58;;;21.40;99.90;;;;;;5079984;28;20506;-80
2022/07/23 12:35:01;;;;;;;;;;;21.50;99.90;;;;;;5070776;28;20047;-80
2022/07/23 12:37:41;;;;;;;2.42;1.55;;;21.80;99.90;;;;;;5070114;28;20269;-80
2022/07/23 12:40:35;;;;;;;3.40;1.77;;;21.50;99.90;;;;;;5072275;28;20556;-80
2022/07/23 12:43:04;;;;;;;2.17;1.48;;;21.80;99.90;;;;;;5084359;28;20117;-80
2022/07/23 12:46:01;;;;;;;2.50;1.60;;;21.80;99.90;;;;;;5072686;28;20043;-80
2022/07/23 12:48:28;;;;;;;1.85;1.40;;;22.30;99.90;;;;;;5074882;28;20148;-80
2022/07/23 12:51:25;;;;;;;2.17;1.50;;;21.80;99.90;;;;;;5094860;28;20419;-80
2022/07/23 12:53:54;;;;;;;2.63;1.70;;;21.70;99.90;;;;;;5090240;28;20067;-80